Terminal Aerodrome Forecast
Issued by NWS Sterling, VA

Current Version | Previous Version | Graphics & Text | Print | Product List | Glossary On
Versions: 1 2 3 4 5 6 7 8 9 10 11 12 13 14 15
882
FTUS41 KLWX 181131
TAFMRB
TAF
KMRB 181131Z 1812/1912 28006KT P6SM BKN045
     FM181400 24007KT P6SM SCT050
     FM182200 18005KT P6SM OVC050
     FM190000 VRB04KT P6SM OVC050
     FM190500 18004KT P6SM BKN045
     FM190800 24006KT P6SM BKN050
     FM191100 27009KT P6SM BKN050=

USA.gov is the U.S. government's official web portal to all federal, state and local government web resources and services.